Time;durP1;ratioP1;P1;durP2;ratioP2;P2;SDS_P1;SDS_P2;PMS_P1;PMS_P2;Temp;Humidity;BMP_temperature;BMP_pressure;BME280_temperature;BME280_humidity;BME280_pressure;Samples;Min_cycle;Max_cycle;Signal;HPM_P1;HPM_P2
2022/03/14 00:00:11;;;;;;;3.20;2.40;;;13.60;99.20;;;;;;4990911;28;20209;-35
2022/03/14 00:02:42;;;;;;;2.50;2.00;;;13.60;99.30;;;;;;4998573;28;20654;-35
2022/03/14 00:05:13;;;;;;;3.80;2.50;;;13.60;99.30;;;;;;5009003;28;20264;-42
2022/03/14 00:07:44;;;;;;;2.27;2.07;;;13.50;99.30;;;;;;4993840;28;20202;-41
2022/03/14 00:10:15;;;;;;;2.47;2.28;;;13.50;99.30;;;;;;4993303;28;20303;-42
2022/03/14 00:12:58;;;;;;;2.30;2.10;;;13.50;99.60;;;;;;4996682;28;20209;-41
2022/03/14 00:15:30;;;;;;;2.40;2.20;;;13.50;99.40;;;;;;4989452;28;20197;-42
2022/03/14 00:17:59;;;;;;;2.30;2.10;;;13.50;99.40;;;;;;4989605;28;20227;-35
2022/03/14 00:20:27;;;;;;;2.70;2.10;;;13.50;99.70;;;;;;4990390;28;20202;-35
2022/03/14 00:22:58;;;;;;;2.65;2.45;;;13.50;99.40;;;;;;4989378;28;20241;-35
2022/03/14 00:25:26;;;;;;;3.38;2.30;;;13.40;99.40;;;;;;4996831;28;20260;-35
2022/03/14 00:27:57;;;;;;;3.00;2.27;;;13.40;99.30;;;;;;4989614;28;20234;-35
2022/03/14 00:30:25;;;;;;;3.80;2.23;;;13.40;99.40;;;;;;4990028;28;20627;-35
2022/03/14 00:32:52;;;;;;;2.17;2.07;;;13.40;99.40;;;;;;4989558;28;20641;-35
2022/03/14 00:35:22;;;;;;;3.73;2.60;;;13.40;99.50;;;;;;4993704;28;20206;-36
2022/03/14 00:37:49;;;;;;;3.43;2.10;;;13.40;99.50;;;;;;5003603;28;20208;-35
2022/03/14 00:40:16;;;;;;;2.40;2.20;;;13.40;99.50;;;;;;5002816;28;20198;-35
2022/03/14 00:42:48;;;;;;;2.13;1.83;;;13.30;99.50;;;;;;4990207;28;20233;-35
2022/03/14 00:45:15;;;;;;;2.28;2.08;;;13.30;99.40;;;;;;5008141;28;20225;-35
2022/03/14 00:47:42;;;;;;;2.07;1.87;;;13.30;99.50;;;;;;5005874;28;20209;-35
2022/03/14 00:50:17;;;;;;;1.83;1.73;;;13.30;99.40;;;;;;4987280;28;20205;-35
2022/03/14 00:52:47;;;;;;;1.80;1.70;;;13.20;99.30;;;;;;5001265;28;20253;-39
2022/03/14 00:55:19;;;;;;;1.98;1.77;;;13.20;99.30;;;;;;5005605;28;20221;-35
2022/03/14 00:57:46;;;;;;;1.70;1.60;;;13.20;99.20;;;;;;5002791;28;21090;-35
2022/03/14 01:00:13;;;;;;;1.83;1.73;;;13.10;99.20;;;;;;4990620;28;20228;-35
2022/03/14 01:02:48;;;;;;;2.23;2.03;;;13.10;99.20;;;;;;5005049;28;20680;-35
2022/03/14 01:05:18;;;;;;;1.97;1.70;;;13.00;99.10;;;;;;4998369;28;20301;-35
2022/03/14 01:07:48;;;;;;;1.87;1.73;;;13.00;99.40;;;;;;4986546;28;20208;-35
2022/03/14 01:10:15;;;;;;;1.80;1.67;;;13.00;99.20;;;;;;4987594;28;20209;-36
2022/03/14 01:12:42;;;;;;;2.00;1.60;;;12.90;99.10;;;;;;5001353;28;20217;-36
2022/03/14 01:15:10;;;;;;;1.90;1.80;;;12.90;99.30;;;;;;5000648;28;20216;-35
2022/03/14 01:17:39;;;;;;;2.17;1.60;;;12.90;99.40;;;;;;4988060;28;20312;-35
2022/03/14 01:20:08;;;;;;;2.00;1.80;;;12.90;99.20;;;;;;4996291;28;20304;-35
2022/03/14 01:22:35;;;;;;;2.15;1.60;;;12.80;99.20;;;;;;5007656;28;20669;-35
2022/03/14 01:25:03;;;;;;;1.67;1.37;;;12.80;99.20;;;;;;5007541;28;20209;-35
2022/03/14 01:27:34;;;;;;;1.60;1.50;;;12.90;99.20;;;;;;4998596;28;20693;-35
2022/03/14 01:30:01;;;;;;;2.07;1.53;;;12.80;99.20;;;;;;4996146;28;20754;-35
2022/03/14 01:32:30;;;;;;;1.87;1.40;;;12.80;99.20;;;;;;4995630;28;20217;-35
2022/03/14 01:35:00;;;;;;;3.23;1.67;;;12.80;99.10;;;;;;4988174;28;20799;-35
2022/03/14 01:37:31;;;;;;;1.87;1.50;;;12.80;99.20;;;;;;4971174;28;20226;-35
2022/03/14 01:40:03;;;;;;;1.80;1.40;;;12.80;99.30;;;;;;4990793;28;20225;-35
2022/03/14 01:42:36;;;;;;;1.40;1.30;;;12.80;99.30;;;;;;4991720;28;20317;-36
2022/03/14 01:45:05;;;;;;;1.50;1.40;;;12.80;99.20;;;;;;4995589;28;20208;-35
2022/03/14 01:47:34;;;;;;;1.90;1.60;;;12.80;99.30;;;;;;4986873;28;20209;-36
2022/03/14 01:50:07;;;;;;;2.03;1.63;;;12.80;99.20;;;;;;5007198;28;20221;-36
2022/03/14 01:52:39;;;;;;;2.37;1.50;;;12.80;99.30;;;;;;4989572;28;20594;-36
2022/03/14 01:55:09;;;;;;;2.50;1.77;;;12.80;99.30;;;;;;4998893;28;20239;-35
2022/03/14 01:57:39;;;;;;;3.20;2.30;;;12.80;99.30;;;;;;5001223;28;20218;-35
2022/03/14 02:00:11;;;;;;;2.40;2.20;;;12.80;99.30;;;;;;4988167;28;20198;-35
2022/03/14 02:02:42;;;;;;;2.03;1.90;;;12.80;99.30;;;;;;5004505;28;20198;-35
2022/03/14 02:05:10;;;;;;;2.40;2.20;;;12.80;99.40;;;;;;4994123;28;20216;-35
2022/03/14 02:07:40;;;;;;;2.57;2.10;;;12.80;99.30;;;;;;4985304;28;20214;-35
2022/03/14 02:10:10;;;;;;;2.65;2.40;;;12.70;99.40;;;;;;5000026;28;20712;-35
2022/03/14 02:12:43;;;;;;;2.90;2.70;;;12.70;99.40;;;;;;5004339;28;20574;-35
2022/03/14 02:15:12;;;;;;;3.17;2.92;;;12.80;99.50;;;;;;5001938;28;20608;-35
2022/03/14 02:17:42;;;;;;;3.77;3.00;;;12.70;99.30;;;;;;4987466;28;20285;-41
2022/03/14 02:20:14;;;;;;;3.40;3.10;;;12.70;99.40;;;;;;4991223;28;20641;-42
2022/03/14 02:22:41;;;;;;;3.60;3.30;;;12.70;99.40;;;;;;4991820;28;20317;-42
2022/03/14 02:25:11;;;;;;;4.10;3.80;;;12.70;99.50;;;;;;4995232;28;20216;-42
2022/03/14 02:27:41;;;;;;;4.13;3.72;;;12.70;99.60;;;;;;4994931;28;20237;-42
2022/03/14 02:30:09;;;;;;;5.30;4.13;;;12.70;99.60;;;;;;5001520;28;20283;-42
2022/03/14 02:32:41;;;;;;;4.85;3.80;;;12.70;99.50;;;;;;4971158;28;20218;-42
2022/03/14 02:35:10;;;;;;;4.25;3.63;;;12.70;99.60;;;;;;4996981;28;20194;-42
2022/03/14 02:37:38;;;;;;;5.47;4.53;;;12.70;99.50;;;;;;4983496;28;20275;-42
2022/03/14 02:40:06;;;;;;;5.55;4.78;;;12.70;99.60;;;;;;4981889;28;20287;-42
2022/03/14 02:42:34;;;;;;;4.90;4.10;;;12.70;99.60;;;;;;4988613;28;20313;-42
2022/03/14 02:45:02;;;;;;;5.00;4.60;;;12.60;99.50;;;;;;4979231;28;20629;-42
2022/03/14 02:47:31;;;;;;;5.40;4.90;;;12.60;99.50;;;;;;4994587;28;20206;-42
2022/03/14 02:50:00;;;;;;;5.40;4.73;;;12.60;99.50;;;;;;5007221;28;20352;-42
2022/03/14 02:52:27;;;;;;;6.27;4.97;;;12.60;99.50;;;;;;5005773;28;20297;-35
2022/03/14 02:55:00;;;;;;;5.63;5.00;;;12.60;99.50;;;;;;5005106;28;20205;-35
2022/03/14 02:57:32;;;;;;;7.27;6.13;;;12.60;99.60;;;;;;4988063;28;20253;-35
2022/03/14 03:00:03;;;;;;;5.73;5.17;;;12.50;99.60;;;;;;4999546;28;20198;-35
2022/03/14 03:02:36;;;;;;;6.77;5.87;;;12.60;99.60;;;;;;5009449;28;20197;-35
2022/03/14 03:05:06;;;;;;;8.88;5.68;;;12.50;99.50;;;;;;4996206;28;20309;-35
2022/03/14 03:07:35;;;;;;;6.27;5.43;;;12.50;99.50;;;;;;4991331;28;20194;-36
2022/03/14 03:10:06;;;;;;;6.90;5.70;;;12.50;99.60;;;;;;4999534;28;20210;-37
2022/03/14 03:12:34;;;;;;;7.85;5.32;;;12.50;99.80;;;;;;5005483;28;20201;-35
2022/03/14 03:15:02;;;;;;;7.53;6.10;;;12.50;99.70;;;;;;4991755;28;20597;-35
2022/03/14 03:17:29;;;;;;;6.75;5.95;;;12.50;99.70;;;;;;4996071;28;20222;-35
2022/03/14 03:19:56;;;;;;;7.70;5.68;;;12.50;99.60;;;;;;5001995;28;20648;-35
2022/03/14 03:22:26;;;;;;;8.57;6.03;;;12.50;99.70;;;;;;4997019;28;20214;-36
2022/03/14 03:24:58;;;;;;;6.80;5.87;;;12.50;99.70;;;;;;4996351;28;20225;-35
2022/03/14 03:27:25;;;;;;;6.37;5.70;;;12.50;99.70;;;;;;5009375;28;20213;-35
2022/03/14 03:29:55;;;;;;;7.57;5.55;;;12.50;99.60;;;;;;4989158;28;20216;-35
2022/03/14 03:32:24;;;;;;;6.65;6.00;;;12.50;99.70;;;;;;4995575;28;20250;-35
2022/03/14 03:34:52;;;;;;;8.32;6.72;;;12.50;99.70;;;;;;4991333;28;20230;-35
2022/03/14 03:37:20;;;;;;;9.27;6.65;;;12.50;99.80;;;;;;5003982;28;20257;-42
2022/03/14 03:39:50;;;;;;;7.40;6.63;;;12.50;99.80;;;;;;5006086;28;20256;-42
2022/03/14 03:42:17;;;;;;;8.75;6.80;;;12.50;99.70;;;;;;4997897;28;20292;-42
2022/03/14 03:44:50;;;;;;;7.50;6.63;;;12.50;99.70;;;;;;4990865;28;20210;-41
2022/03/14 03:47:19;;;;;;;7.60;6.50;;;12.50;99.70;;;;;;5006235;28;20197;-41
2022/03/14 03:49:50;;;;;;;10.37;6.93;;;12.50;99.80;;;;;;5010017;28;20241;-41
2022/03/14 03:52:17;;;;;;;10.27;6.65;;;12.50;99.70;;;;;;5005288;28;20672;-41
2022/03/14 03:54:44;;;;;;;9.48;6.68;;;12.50;99.90;;;;;;5009319;28;20777;-41
2022/03/14 03:57:12;;;;;;;9.63;7.40;;;12.50;99.90;;;;;;5004896;28;20246;-41
2022/03/14 03:59:42;;;;;;;7.87;6.87;;;12.40;99.90;;;;;;5009821;28;20205;-41
2022/03/14 04:02:09;;;;;;;7.33;6.63;;;12.40;99.80;;;;;;4994679;28;20709;-41
2022/03/14 04:04:37;;;;;;;8.97;6.70;;;12.40;99.80;;;;;;5008503;28;20214;-41
2022/03/14 04:07:09;;;;;;;8.30;7.10;;;12.40;99.80;;;;;;4989999;28;20733;-41
2022/03/14 04:09:36;;;;;;;7.90;6.40;;;12.40;99.80;;;;;;4998843;28;20229;-41
2022/03/14 04:12:25;;;;;;;8.80;7.03;;;12.40;99.90;;;;;;4996818;28;20296;-41
2022/03/14 04:14:56;;;;;;;7.17;6.40;;;12.40;99.80;;;;;;5002571;28;20206;-41
2022/03/14 04:17:27;;;;;;;7.63;6.57;;;12.40;99.90;;;;;;4990437;28;20226;-41
2022/03/14 04:19:54;;;;;;;8.47;6.17;;;12.40;99.80;;;;;;5002185;28;20229;-41
2022/03/14 04:22:24;;;;;;;8.73;6.77;;;12.40;99.90;;;;;;4992511;28;20302;-41
2022/03/14 04:24:52;;;;;;;9.40;6.27;;;12.40;99.90;;;;;;5000071;28;20260;-41
2022/03/14 04:27:19;;;;;;;9.27;6.37;;;12.40;99.90;;;;;;5004734;28;20730;-41
2022/03/14 04:29:49;;;;;;;8.57;6.07;;;12.40;99.90;;;;;;5009113;28;20202;-41
2022/03/14 04:32:16;;;;;;;9.17;5.80;;;12.40;99.90;;;;;;4997644;28;20921;-41
2022/03/14 04:34:44;;;;;;;8.70;6.27;;;12.40;99.90;;;;;;4990788;28;20613;-43
2022/03/14 04:37:13;;;;;;;8.30;5.90;;;12.40;99.90;;;;;;5007416;28;20256;-37
2022/03/14 04:39:43;;;;;;;9.47;5.80;;;12.40;99.90;;;;;;4997275;28;20202;-36
2022/03/14 04:42:17;;;;;;;8.27;5.70;;;12.40;99.90;;;;;;4998079;28;20696;-36
2022/03/14 04:44:49;;;;;;;8.77;6.03;;;12.40;99.90;;;;;;5000456;28;20788;-36
2022/03/14 04:47:19;;;;;;;10.37;6.37;;;12.40;99.90;;;;;;5005567;28;20687;-43
2022/03/14 04:49:48;;;;;;;8.37;5.33;;;12.40;99.90;;;;;;5006815;28;20590;-43
2022/03/14 04:52:18;;;;;;;7.93;5.63;;;12.40;99.90;;;;;;4998435;28;20206;-43
2022/03/14 04:54:48;;;;;;;9.77;5.43;;;12.40;99.90;;;;;;4992825;28;20239;-42
2022/03/14 04:57:18;;;;;;;8.67;5.57;;;12.40;99.90;;;;;;5005087;28;20241;-42
2022/03/14 04:59:52;;;;;;;5.73;5.10;;;12.40;99.90;;;;;;5000581;28;20256;-42
2022/03/14 05:02:21;;;;;;;8.70;5.47;;;12.40;99.90;;;;;;4995944;28;20305;-42
2022/03/14 05:04:52;;;;;;;8.40;5.10;;;12.40;99.90;;;;;;4992796;28;20194;-42
2022/03/14 05:07:22;;;;;;;6.90;4.87;;;12.40;99.90;;;;;;4997985;28;20209;-43
2022/03/14 05:09:52;;;;;;;9.48;5.18;;;12.40;99.90;;;;;;5007185;28;20717;-42
2022/03/14 05:12:21;;;;;;;9.60;4.90;;;12.40;99.90;;;;;;5006831;28;20206;-42
2022/03/14 05:14:54;;;;;;;7.27;5.00;;;12.40;99.90;;;;;;4991223;28;20309;-42
2022/03/14 05:17:24;;;;;;;8.10;5.20;;;12.40;99.90;;;;;;4990858;28;20221;-42
2022/03/14 05:19:53;;;;;;;8.90;5.20;;;12.40;99.90;;;;;;4998804;28;20202;-42
2022/03/14 05:22:22;;;;;;;7.10;5.20;;;12.40;99.90;;;;;;4989445;28;20570;-42
2022/03/14 05:24:50;;;;;;;7.07;4.70;;;12.40;99.90;;;;;;4993757;28;20304;-42
2022/03/14 05:27:17;;;;;;;8.60;5.05;;;12.30;99.90;;;;;;5003317;28;20205;-42
2022/03/14 05:29:44;;;;;;;7.37;5.17;;;12.30;99.90;;;;;;5004106;28;20738;-42
2022/03/14 05:32:12;;;;;;;9.10;5.23;;;12.40;99.90;;;;;;4981782;28;20203;-42
2022/03/14 05:34:47;;;;;;;6.60;4.87;;;12.40;99.90;;;;;;4987623;28;20693;-42
2022/03/14 05:37:19;;;;;;;7.18;5.28;;;12.40;99.90;;;;;;5003258;28;20218;-43
2022/03/14 05:39:48;;;;;;;6.97;4.80;;;12.30;99.90;;;;;;5000833;28;20194;-42
2022/03/14 05:42:18;;;;;;;7.93;4.87;;;12.30;99.90;;;;;;4998313;28;20680;-42
2022/03/14 05:44:45;;;;;;;10.10;5.07;;;12.30;99.90;;;;;;5007900;28;20609;-42
2022/03/14 05:47:13;;;;;;;6.80;4.83;;;12.30;99.90;;;;;;5001380;28;20510;-42
2022/03/14 05:49:40;;;;;;;7.53;4.83;;;12.30;99.90;;;;;;5008074;28;20201;-43
2022/03/14 05:52:09;;;;;;;8.17;5.10;;;12.30;99.90;;;;;;4997121;28;20249;-42
2022/03/14 05:54:37;;;;;;;6.43;4.70;;;12.20;99.90;;;;;;4987712;28;20653;-42
2022/03/14 05:57:09;;;;;;;7.63;5.10;;;12.20;99.90;;;;;;5002873;28;20226;-42
2022/03/14 05:59:36;;;;;;;9.03;5.20;;;12.20;99.90;;;;;;4997668;28;20236;-43
2022/03/14 06:02:04;;;;;;;10.17;5.50;;;12.20;99.90;;;;;;4996509;28;20689;-43
2022/03/14 06:04:31;;;;;;;10.53;5.53;;;12.20;99.90;;;;;;5001615;28;20209;-42
2022/03/14 06:07:00;;;;;;;12.50;5.60;;;12.20;99.90;;;;;;5006889;28;20293;-42
2022/03/14 06:09:30;;;;;;;10.57;5.23;;;12.10;99.90;;;;;;4994311;28;20210;-43
2022/03/14 06:12:02;;;;;;;8.80;5.47;;;12.10;99.90;;;;;;5003493;28;20252;-43
2022/03/14 06:14:31;;;;;;;10.10;5.27;;;12.10;99.90;;;;;;4999485;28;20197;-42
2022/03/14 06:16:58;;;;;;;8.97;5.27;;;12.20;99.90;;;;;;4997829;28;20268;-42
2022/03/14 06:19:32;;;;;;;10.03;4.97;;;12.20;99.90;;;;;;5001761;28;20206;-42
2022/03/14 06:22:00;;;;;;;9.60;5.10;;;12.20;99.90;;;;;;4998536;28;20199;-43
2022/03/14 06:24:27;;;;;;;8.27;5.93;;;12.20;99.90;;;;;;4987377;28;20269;-43
2022/03/14 06:26:58;;;;;;;7.73;5.67;;;12.20;99.90;;;;;;4990310;28;20214;-43
2022/03/14 06:29:25;;;;;;;10.93;5.90;;;12.20;99.90;;;;;;4990366;28;20209;-43
2022/03/14 06:31:53;;;;;;;8.70;5.53;;;12.20;99.90;;;;;;5003795;28;20211;-43
2022/03/14 06:34:22;;;;;;;8.43;5.50;;;12.20;99.90;;;;;;5002445;28;20381;-43
2022/03/14 06:36:54;;;;;;;8.70;5.40;;;12.20;99.90;;;;;;5009184;28;20210;-43
2022/03/14 06:39:21;;;;;;;9.37;5.70;;;12.20;99.90;;;;;;4999114;28;20263;-43
2022/03/14 06:41:50;;;;;;;9.53;5.67;;;12.20;99.90;;;;;;4991392;28;20198;-43
2022/03/14 06:44:19;;;;;;;9.67;5.73;;;12.20;99.90;;;;;;5003375;28;20210;-43
2022/03/14 06:46:49;;;;;;;8.27;5.50;;;12.20;99.90;;;;;;4997073;28;20795;-42
2022/03/14 06:49:19;;;;;;;8.63;5.67;;;12.20;99.90;;;;;;4993668;28;20241;-42
2022/03/14 06:51:47;;;;;;;9.00;6.53;;;12.20;99.90;;;;;;5001906;28;20320;-42
2022/03/14 06:54:14;;;;;;;9.93;5.87;;;12.30;99.90;;;;;;4993584;28;20249;-43
2022/03/14 06:56:47;;;;;;;6.97;5.07;;;12.30;99.90;;;;;;5005013;28;20193;-43
2022/03/14 06:59:16;;;;;;;8.27;5.83;;;12.30;99.90;;;;;;5001775;28;20612;-42
2022/03/14 07:01:44;;;;;;;14.47;7.57;;;12.30;99.90;;;;;;4994416;28;20684;-42
2022/03/14 07:04:17;;;;;;;12.03;5.93;;;12.30;99.90;;;;;;4996559;28;20661;-42
2022/03/14 07:06:46;;;;;;;9.17;5.70;;;12.30;99.90;;;;;;5001672;28;20221;-42
2022/03/14 07:09:14;;;;;;;8.73;6.13;;;12.30;99.90;;;;;;4976992;28;20283;-43
2022/03/14 07:11:44;;;;;;;8.50;5.97;;;12.30;99.90;;;;;;5002633;28;20344;-42
2022/03/14 07:14:11;;;;;;;7.83;6.33;;;12.30;99.90;;;;;;5004087;28;20645;-42
2022/03/14 07:16:38;;;;;;;10.40;6.30;;;12.30;99.90;;;;;;4988396;28;20312;-42
2022/03/14 07:19:06;;;;;;;12.20;6.07;;;12.40;99.90;;;;;;4993531;28;20712;-43
2022/03/14 07:21:34;;;;;;;9.90;6.30;;;12.40;99.90;;;;;;4993871;28;20213;-42
2022/03/14 07:24:01;;;;;;;29.40;9.17;;;12.40;99.90;;;;;;4990246;28;20206;-42
2022/03/14 07:26:31;;;;;;;11.53;6.83;;;12.40;99.90;;;;;;4991004;28;20214;-43
2022/03/14 07:28:58;;;;;;;9.23;5.90;;;12.40;99.90;;;;;;4997812;28;20201;-43
2022/03/14 07:31:25;;;;;;;10.73;6.97;;;12.40;99.90;;;;;;4991835;28;20206;-42
2022/03/14 07:33:57;;;;;;;13.77;6.70;;;12.50;99.90;;;;;;4990757;28;20325;-42
2022/03/14 07:36:25;;;;;;;17.90;7.37;;;12.50;99.90;;;;;;4992554;28;20221;-42
2022/03/14 07:38:56;;;;;;;10.40;6.40;;;12.50;99.90;;;;;;4986699;28;20229;-43
2022/03/14 07:41:23;;;;;;;11.77;7.00;;;12.50;99.90;;;;;;4990499;28;20621;-41
2022/03/14 07:43:51;;;;;;;8.87;6.30;;;12.50;99.90;;;;;;4995266;28;20227;-41
2022/03/14 07:46:18;;;;;;;10.30;6.63;;;12.50;99.90;;;;;;5000724;28;20297;-43
2022/03/14 07:48:49;;;;;;;10.57;6.80;;;12.50;99.90;;;;;;4993226;28;20198;-35
2022/03/14 07:51:19;;;;;;;8.83;6.30;;;12.60;99.90;;;;;;5005938;28;20202;-35
2022/03/14 07:53:48;;;;;;;12.17;6.37;;;12.60;99.90;;;;;;4992633;28;20332;-35
2022/03/14 07:56:18;;;;;;;10.30;6.00;;;12.60;99.90;;;;;;4989589;28;20230;-35
2022/03/14 07:58:45;;;;;;;10.48;6.43;;;12.60;99.90;;;;;;4997397;28;20233;-34
2022/03/14 08:01:17;;;;;;;9.20;5.53;;;12.60;99.90;;;;;;4999693;28;20209;-35
2022/03/14 08:03:45;;;;;;;7.70;5.67;;;12.70;99.90;;;;;;4991110;28;20253;-35
2022/03/14 08:06:22;;;;;;;10.32;5.97;;;12.70;99.90;;;;;;5000711;28;20201;-35
2022/03/14 08:08:50;;;;;;;8.38;5.18;;;12.80;99.90;;;;;;4980143;28;20593;-35
2022/03/14 08:11:28;;;;;;;9.60;5.93;;;12.80;99.90;;;;;;4984553;28;20213;-35
2022/03/14 08:14:00;;;;;;;10.63;5.67;;;12.80;99.90;;;;;;4989589;28;20296;-35
2022/03/14 08:16:27;;;;;;;25.87;7.43;;;12.90;99.90;;;;;;4992819;28;20590;-34
2022/03/14 08:18:55;;;;;;;10.40;5.77;;;12.90;99.90;;;;;;4996420;28;20229;-35
2022/03/14 08:21:25;;;;;;;16.37;6.60;;;12.90;99.90;;;;;;5002098;28;20559;-35
2022/03/14 08:23:52;;;;;;;15.65;6.13;;;12.90;99.90;;;;;;5002271;28;20205;-35
2022/03/14 08:26:21;;;;;;;20.75;8.65;;;12.90;99.90;;;;;;4995894;28;20308;-35
2022/03/14 08:28:51;;;;;;;13.60;6.13;;;12.90;99.90;;;;;;4992584;28;20203;-35
2022/03/14 08:31:21;;;;;;;50.23;11.57;;;13.00;99.90;;;;;;5006612;28;20212;-35
2022/03/14 08:33:49;;;;;;;13.60;6.30;;;13.00;99.90;;;;;;5004631;28;20231;-35
2022/03/14 08:36:21;;;;;;;62.47;14.03;;;12.90;99.90;;;;;;5004464;28;20213;-35
2022/03/14 08:38:51;;;;;;;18.00;6.87;;;13.00;99.90;;;;;;4996970;28;20218;-35
2022/03/14 08:41:18;;;;;;;11.02;5.65;;;13.00;99.90;;;;;;4990996;28;20210;-35
2022/03/14 08:43:48;;;;;;;12.53;5.20;;;13.00;99.90;;;;;;4992030;28;20802;-36
2022/03/14 08:46:18;;;;;;;32.13;9.10;;;13.00;99.90;;;;;;4994551;28;20252;-35
2022/03/14 08:48:51;;;;;;;11.30;5.37;;;13.10;99.90;;;;;;4990187;28;20211;-35
2022/03/14 08:51:21;;;;;;;11.90;5.70;;;13.10;99.90;;;;;;5000157;28;20671;-35
2022/03/14 08:53:48;;;;;;;11.60;5.80;;;13.10;99.90;;;;;;4992585;28;20233;-34
2022/03/14 08:56:16;;;;;;;11.70;5.23;;;13.10;99.90;;;;;;5007532;28;20205;-35
2022/03/14 08:58:43;;;;;;;13.20;5.17;;;13.10;99.90;;;;;;4985285;28;20223;-35
2022/03/14 09:01:12;;;;;;;8.17;5.00;;;13.20;99.90;;;;;;4996375;28;20218;-35
2022/03/14 09:03:39;;;;;;;13.13;4.77;;;13.20;99.90;;;;;;4989354;28;20209;-35
2022/03/14 09:06:09;;;;;;;13.20;4.68;;;13.20;99.90;;;;;;5000100;28;20225;-35
2022/03/14 09:08:37;;;;;;;36.20;9.43;;;13.30;99.90;;;;;;4983463;28;20237;-35
2022/03/14 09:11:06;;;;;;;12.50;4.50;;;13.30;99.90;;;;;;4997530;28;20242;-35
2022/03/14 09:13:38;;;;;;;8.70;4.22;;;13.30;99.90;;;;;;4987947;28;20221;-35
2022/03/14 09:16:08;;;;;;;8.43;4.40;;;13.40;99.90;;;;;;4994092;28;20775;-36
2022/03/14 09:18:36;;;;;;;8.70;4.57;;;13.40;99.90;;;;;;5007324;28;20720;-35
2022/03/14 09:21:06;;;;;;;25.40;7.87;;;13.50;99.90;;;;;;4994882;28;20232;-35
2022/03/14 09:23:36;;;;;;;10.43;4.45;;;13.50;99.90;;;;;;4995354;28;20260;-35
2022/03/14 09:26:09;;;;;;;19.02;5.75;;;13.50;99.90;;;;;;4989991;28;20214;-35
2022/03/14 09:28:44;;;;;;;15.95;5.32;;;13.50;99.90;;;;;;4992395;28;20226;-35
2022/03/14 09:31:14;;;;;;;11.87;4.00;;;13.60;99.90;;;;;;4993391;28;20225;-35
2022/03/14 09:33:44;;;;;;;10.60;4.00;;;13.60;99.90;;;;;;4988846;28;20587;-34
2022/03/14 09:36:14;;;;;;;5.55;3.25;;;13.70;99.90;;;;;;4995862;28;20215;-36
2022/03/14 09:38:44;;;;;;;15.65;3.80;;;13.70;99.90;;;;;;4995079;28;20243;-35
2022/03/14 09:41:17;;;;;;;7.82;3.38;;;13.70;99.90;;;;;;4983503;28;20783;-35
2022/03/14 09:43:46;;;;;;;10.85;3.70;;;13.70;99.90;;;;;;4996882;28;20198;-35
2022/03/14 09:46:16;;;;;;;8.27;3.50;;;13.70;99.90;;;;;;5000119;28;20221;-35
2022/03/14 09:48:52;;;;;;;12.80;3.63;;;13.70;99.90;;;;;;5005761;28;20228;-35
2022/03/14 09:51:23;;;;;;;9.27;3.17;;;13.70;99.90;;;;;;4995668;28;20344;-35
2022/03/14 09:53:52;;;;;;;8.63;3.03;;;13.70;99.90;;;;;;4988001;28;20744;-35
2022/03/14 09:56:19;;;;;;;10.38;3.58;;;13.80;99.90;;;;;;4987632;28;20206;-35
2022/03/14 09:58:46;;;;;;;10.67;3.43;;;13.80;99.90;;;;;;4989398;28;20206;-41
2022/03/14 10:01:14;;;;;;;12.13;3.23;;;13.80;99.90;;;;;;4997609;28;20252;-41
2022/03/14 10:03:41;;;;;;;9.57;3.53;;;13.90;99.90;;;;;;4987715;28;20296;-41
2022/03/14 10:06:11;;;;;;;10.35;3.40;;;13.80;99.90;;;;;;4975791;28;20194;-41
2022/03/14 10:08:41;;;;;;;10.45;2.90;;;13.90;99.90;;;;;;5002385;28;20256;-41
2022/03/14 10:11:09;;;;;;;10.38;3.20;;;13.90;99.90;;;;;;4996049;28;20202;-41
2022/03/14 10:13:43;;;;;;;8.90;3.13;;;13.90;99.90;;;;;;4999936;28;20327;-42
2022/03/14 10:16:12;;;;;;;8.82;3.10;;;14.00;99.90;;;;;;5009195;28;20236;-36
2022/03/14 10:19:01;;;;;;;6.97;2.80;;;14.00;99.90;;;;;;4989242;28;20316;-36
2022/03/14 10:21:35;;;;;;;9.47;2.60;;;14.10;99.90;;;;;;4998305;28;20220;-36
2022/03/14 10:24:10;;;;;;;7.80;2.83;;;14.10;99.90;;;;;;5009804;28;20204;-36
2022/03/14 10:26:45;;;;;;;9.65;3.22;;;14.20;99.90;;;;;;4990300;28;20202;-36
2022/03/14 10:29:15;;;;;;;8.63;3.28;;;14.20;99.90;;;;;;5011519;28;20224;-36
2022/03/14 10:31:47;;;;;;;14.10;3.13;;;14.30;99.90;;;;;;5009833;28;20231;-36
2022/03/14 10:34:18;;;;;;;8.65;2.67;;;14.30;99.90;;;;;;5001217;28;20261;-36
2022/03/14 10:36:45;;;;;;;6.78;2.72;;;14.30;99.90;;;;;;4993711;28;20752;-36
2022/03/14 10:39:12;;;;;;;10.40;2.83;;;14.30;99.90;;;;;;4990453;28;20233;-36
2022/03/14 10:41:40;;;;;;;7.68;2.40;;;14.30;99.90;;;;;;4973550;28;20225;-36
2022/03/14 10:44:31;;;;;;;10.03;3.00;;;14.30;99.90;;;;;;4997796;28;20202;-36
2022/03/14 10:47:00;;;;;;;9.95;2.83;;;14.30;99.90;;;;;;5002959;28;20202;-36
2022/03/14 10:49:31;;;;;;;9.13;2.50;;;14.30;99.90;;;;;;5008368;28;20699;-36
2022/03/14 10:52:06;;;;;;;7.53;2.80;;;14.40;99.90;;;;;;5009376;28;20248;-36
2022/03/14 10:54:51;;;;;;;10.30;3.47;;;14.40;99.90;;;;;;4991275;28;20254;-36
2022/03/14 10:57:26;;;;;;;10.73;2.97;;;14.40;99.90;;;;;;4990673;28;20207;-36
2022/03/14 10:59:56;;;;;;;6.75;2.63;;;14.40;99.90;;;;;;4994672;28;20886;-36
2022/03/14 11:02:28;;;;;;;9.10;2.33;;;14.50;99.90;;;;;;4997766;28;20202;-36
2022/03/14 11:05:01;;;;;;;9.57;2.80;;;14.50;99.90;;;;;;5002729;28;20618;-36
2022/03/14 11:07:33;;;;;;;9.23;2.50;;;14.50;99.90;;;;;;5001061;28;20224;-36
2022/03/14 11:10:02;;;;;;;7.10;2.20;;;14.50;99.90;;;;;;4993270;28;20649;-36
2022/03/14 11:12:32;;;;;;;10.93;2.78;;;14.50;99.90;;;;;;4988801;28;20682;-36
2022/03/14 11:15:00;;;;;;;7.05;2.63;;;14.50;99.90;;;;;;4993360;28;20201;-36
2022/03/14 11:17:37;;;;;;;7.15;2.90;;;14.50;99.90;;;;;;4972709;28;20771;-35
2022/03/14 11:20:24;;;;;;;10.18;2.75;;;14.50;99.90;;;;;;4995984;28;20320;-35
2022/03/14 11:22:54;;;;;;;9.00;2.85;;;14.50;99.90;;;;;;4999718;28;20549;-36
2022/03/14 11:25:26;;;;;;;6.57;2.83;;;14.50;99.90;;;;;;4999826;28;20226;-36
2022/03/14 11:27:55;;;;;;;5.30;2.47;;;14.60;99.90;;;;;;5000733;28;20205;-35
2022/03/14 11:30:27;;;;;;;7.60;2.72;;;14.60;99.90;;;;;;5003811;28;20276;-36
2022/03/14 11:32:57;;;;;;;9.77;3.15;;;14.60;99.90;;;;;;5003325;28;20218;-36
2022/03/14 11:35:25;;;;;;;8.43;2.88;;;14.60;99.90;;;;;;4996292;28;20222;-36
2022/03/14 11:37:57;;;;;;;6.85;2.55;;;14.60;99.90;;;;;;4998046;28;20288;-35
2022/03/14 11:40:26;;;;;;;10.43;2.63;;;14.70;99.90;;;;;;4990226;28;20328;-36
2022/03/14 11:42:54;;;;;;;9.77;2.97;;;14.70;99.90;;;;;;5004484;28;20276;-36
2022/03/14 11:45:22;;;;;;;11.52;3.17;;;14.80;99.90;;;;;;4992349;28;20206;-36
2022/03/14 11:47:52;;;;;;;7.30;3.15;;;14.90;99.90;;;;;;4994046;28;20233;-36
2022/03/14 11:50:22;;;;;;;8.27;3.08;;;14.90;99.90;;;;;;4979872;28;20213;-36
2022/03/14 11:52:53;;;;;;;9.57;3.20;;;15.00;99.90;;;;;;5001396;28;20214;-36
2022/03/14 11:55:22;;;;;;;7.47;2.88;;;15.10;99.90;;;;;;5007057;28;20721;-36
2022/03/14 11:57:52;;;;;;;14.93;3.45;;;15.10;99.90;;;;;;5006119;28;20242;-35
2022/03/14 12:00:24;;;;;;;11.05;3.20;;;15.10;99.90;;;;;;5007552;28;20335;-41
2022/03/14 12:03:02;;;;;;;5.07;2.77;;;15.20;99.90;;;;;;5007211;28;20196;-43
2022/03/14 12:05:35;;;;;;;12.60;3.38;;;15.30;99.90;;;;;;4992071;28;20225;-43
2022/03/14 12:08:32;;;;;;;7.20;3.10;;;15.20;99.90;;;;;;4999453;28;20566;-43
2022/03/14 12:11:34;;;;;;;10.32;3.00;;;15.30;99.90;;;;;;4972261;28;20305;-43
2022/03/14 12:14:08;;;;;;;8.05;2.80;;;15.30;99.90;;;;;;4990342;28;20308;-43
2022/03/14 12:16:40;;;;;;;8.85;2.53;;;15.30;99.90;;;;;;4989706;28;20206;-43
2022/03/14 12:19:38;;;;;;;7.75;2.92;;;15.40;99.90;;;;;;4989398;28;20901;-36
2022/03/14 12:22:06;;;;;;;7.40;3.10;;;15.50;99.90;;;;;;4989501;28;20206;-35
2022/03/14 12:24:36;;;;;;;8.25;2.88;;;15.50;99.90;;;;;;5001774;28;20727;-36
2022/03/14 12:27:24;;;;;;;6.05;2.92;;;15.60;99.90;;;;;;4990182;28;20211;-36
2022/03/14 12:29:54;;;;;;;6.57;3.17;;;15.70;99.90;;;;;;5005922;28;20248;-36
2022/03/14 12:32:37;;;;;;;9.73;3.25;;;15.70;99.90;;;;;;4990704;28;20201;-36
2022/03/14 12:35:11;;;;;;;8.60;3.22;;;15.80;99.90;;;;;;4989472;28;20297;-36
2022/03/14 12:37:47;;;;;;;10.40;3.10;;;15.80;99.90;;;;;;4991030;28;20206;-36
2022/03/14 12:40:35;;;;;;;10.52;2.95;;;15.80;99.90;;;;;;5001053;28;20691;-42
2022/03/14 12:43:24;;;;;;;7.38;2.85;;;15.90;99.90;;;;;;4995517;28;20425;-42
2022/03/14 12:45:57;;;;;;;9.68;3.15;;;15.90;99.90;;;;;;4995459;28;20290;-42
2022/03/14 12:48:34;;;;;;;7.30;2.80;;;16.00;99.90;;;;;;4996430;28;20726;-42
2022/03/14 12:51:09;;;;;;;10.02;3.10;;;16.00;99.90;;;;;;4989267;28;20198;-43
2022/03/14 12:53:43;;;;;;;7.25;2.95;;;16.00;99.90;;;;;;5004819;28;20609;-43
2022/03/14 12:56:17;;;;;;;7.25;2.88;;;16.10;99.90;;;;;;5007988;28;20233;-43
2022/03/14 12:59:03;;;;;;;8.35;2.70;;;16.10;99.90;;;;;;4988165;28;20206;-42